Jefferson, NC

5:39 PM EST on November 15, 2019 (GMT -0500)
Ashe County

Weather History for KGEV - September, 2019

Change the Weather History Date:

Tuesday, September 24, 2019

  Actual Average Record
Temperature  
Mean Temperature 66 °F -  
Max Temperature 72 °F 69 °F 83 °F (1970)
Min Temperature 54 °F 48 °F 26 °F (1983)
Growing Degree Days 16 (Base 50)    
Moisture  
Dew Point 51 °F    
Average Humidity 63    
Maximum Humidity 86    
Minimum Humidity 37    
Precipitation  
Precipitation 0.00 in - - ()
Sea Level Pressure  
Sea Level Pressure 30.04 in    
Wind  
Wind Speed 5 mph ()    
Max Wind Speed 13 mph    
Max Gust Speed 21 mph    
Visibility 10.0 miles    
Events      
Averages and records for this station are not official NWS values.
T = Trace of Precipitation, MM = Missing Value Source: Averaged Metar Reports

Daily Weather History Graph

Daily Weather History Graph

Search for Another Location

Airport or City:

Astronomy

Sep. 24, 2019 Rise Set
Actual Time 7:15 AM EDT 7:19 PM EDT
Civil Twilight 6:49 AM EDT 7:45 PM EDT
Nautical Twilight 6:19 AM EDT 8:15 PM EDT
Astronomical Twilight 5:48 AM EDT 8:45 PM EDT
Moon 2:08 AM EDT (9/24) 4:55 PM EDT (9/24)
Length of Visible Light 12h 56m
Length of Day
12h 04m
Waning Crescent, 23% of the Moon is Illuminated
Sep 24
Waning Crescent
Sep 28
New
Oct 5
First Quarter
Oct 13
Full
Oct 21
Last Quarter

Hourly Weather History & Observations

Time (EDT) Temp. Dew Point Humidity Pressure Visibility Wind Dir Wind Speed Gust Speed Precip Events Conditions
12:15 AM 65.8 °F 60.8 °F 84% 30.08 in 10.0 mi WNW 6.9 mph - N/A   Overcast
12:35 AM 65.3 °F 60.4 °F 84% 30.07 in 10.0 mi West 3.5 mph - N/A   Overcast
12:55 AM 64.4 °F 60.1 °F 86% 30.07 in 10.0 mi NW 3.5 mph - N/A   Mostly Cloudy
1:15 AM 64.4 °F 59.9 °F 85% 30.07 in 10.0 mi Calm Calm - N/A   Mostly Cloudy
1:35 AM 64.6 °F 59.7 °F 84% 30.07 in 10.0 mi Calm Calm - N/A   Overcast
1:55 AM 64.2 °F 59.9 °F 86% 30.07 in 10.0 mi Calm Calm - N/A   Overcast
2:15 AM 64.0 °F 59.9 °F 86% 30.06 in 10.0 mi Calm Calm - N/A   Overcast
2:35 AM 64.6 °F 59.0 °F 82% 30.06 in 10.0 mi NNW 5.8 mph - N/A   Overcast
2:55 AM 64.0 °F 59.2 °F 84% 30.05 in 10.0 mi West 3.5 mph - N/A   Overcast
3:15 AM 64.0 °F 59.0 °F 84% 30.04 in 10.0 mi WNW 3.5 mph - N/A   Mostly Cloudy
3:35 AM 63.7 °F 59.0 °F 85% 30.04 in 10.0 mi NW 4.6 mph - N/A   Overcast
3:55 AM 63.1 °F 59.0 °F 86% 30.04 in 10.0 mi NW 3.5 mph - N/A   Overcast
4:15 AM 63.3 °F 59.0 °F 86% 30.04 in 10.0 mi NW 5.8 mph - N/A   Overcast
4:35 AM 63.1 °F 58.5 °F 85% 30.04 in 10.0 mi WNW 6.9 mph - N/A   Overcast
4:55 AM 63.5 °F 57.6 °F 81% 30.04 in 10.0 mi NNW 6.9 mph - N/A   Overcast
5:15 AM 63.1 °F 57.2 °F 81% 30.04 in 10.0 mi NW 6.9 mph - N/A   Scattered Clouds
5:35 AM 62.2 °F 57.2 °F 84% 30.03 in 10.0 mi NW 5.8 mph - N/A   Scattered Clouds
5:55 AM 61.9 °F 57.4 °F 85% 30.04 in 10.0 mi NW 4.6 mph - N/A   Mostly Cloudy
6:15 AM 61.9 °F 57.2 °F 85% 30.04 in 10.0 mi NW 8.1 mph - N/A   Scattered Clouds
6:35 AM 61.7 °F 57.2 °F 85% 30.04 in 10.0 mi NW 6.9 mph - N/A   Scattered Clouds
6:55 AM 61.7 °F 57.0 °F 85% 30.04 in 10.0 mi NW 10.4 mph - N/A   Mostly Cloudy
7:15 AM 61.0 °F 56.7 °F 86% 30.04 in 10.0 mi NW 9.2 mph - N/A   Scattered Clouds
7:35 AM 61.2 °F 56.3 °F 84% 30.04 in 10.0 mi NW 6.9 mph - N/A   Clear
7:55 AM 61.2 °F 55.8 °F 82% 30.06 in 10.0 mi NW 6.9 mph - N/A   Clear
8:15 AM 61.2 °F 55.9 °F 83% 30.06 in 10.0 mi NW 4.6 mph - N/A   Clear
8:55 AM 62.6 °F 54.3 °F 74% 30.07 in 10.0 mi NW 5.8 mph - N/A   Clear
9:15 AM 63.0 °F 53.8 °F 72% 30.07 in 10.0 mi WNW 8.1 mph - N/A   Clear
9:35 AM 63.5 °F 53.1 °F 69% 30.07 in 10.0 mi NW 9.2 mph - N/A   Clear
9:55 AM 63.7 °F 53.2 °F 69% 30.07 in 10.0 mi NW 9.2 mph - N/A   Clear
10:15 AM 64.4 °F 53.1 °F 67% 30.08 in 10.0 mi NW 8.1 mph - N/A   Clear
10:35 AM 64.8 °F 51.3 °F 62% 30.08 in 10.0 mi NW 11.5 mph - N/A   Clear
10:55 AM 65.8 °F 49.1 °F 55% 30.08 in 10.0 mi WNW 8.1 mph 17.3 mph N/A   Clear
11:15 AM 66.2 °F 49.6 °F 55% 30.08 in 10.0 mi NW 12.7 mph 16.1 mph N/A   Clear
11:35 AM 67.3 °F 48.4 °F 51% 30.08 in 10.0 mi WNW 11.5 mph 20.7 mph N/A   Clear
11:55 AM 66.9 °F 46.8 °F 48% 30.08 in 10.0 mi WNW 6.9 mph 16.1 mph N/A   Clear
12:15 PM 67.6 °F 47.3 °F 48% 30.08 in 10.0 mi NW 8.1 mph - N/A   Clear
12:35 PM 67.8 °F 48.2 °F 49% 30.07 in 10.0 mi WNW 6.9 mph - N/A   Clear
12:55 PM 68.5 °F 48.4 °F 49% 30.06 in 10.0 mi NNW 5.8 mph - N/A   Clear
1:15 PM 69.4 °F 47.7 °F 46% 30.06 in 10.0 mi West 5.8 mph - N/A   Clear
1:35 PM 68.9 °F 48.2 °F 48% 30.04 in 10.0 mi West 4.6 mph - N/A   Clear
1:55 PM 70.3 °F 48.7 °F 46% 30.04 in 10.0 mi North 6.9 mph - N/A   Clear
2:15 PM 70.9 °F 48.2 °F 44% 30.03 in 10.0 mi North 3.5 mph - N/A   Clear
2:35 PM 71.6 °F 46.8 °F 41% 30.03 in 10.0 mi NNW 6.9 mph - N/A   Clear
2:55 PM 72.0 °F 45.5 °F 39% 30.02 in 10.0 mi NW 4.6 mph - N/A   Clear
3:15 PM 71.6 °F 47.8 °F 43% 30.02 in 10.0 mi West 6.9 mph - N/A   Clear
3:35 PM 72.7 °F 48.7 °F 43% 30.01 in 10.0 mi West 6.9 mph 17.3 mph N/A   Clear
3:55 PM 72.9 °F 48.4 °F 42% 30.02 in 10.0 mi West 10.4 mph - N/A   Clear
4:15 PM 72.9 °F 47.3 °F 40% 30.01 in 10.0 mi West 11.5 mph - N/A   Clear
4:35 PM 72.0 °F 47.3 °F 41% 30.01 in 10.0 mi NW 4.6 mph - N/A   Clear
4:55 PM 72.1 °F 44.6 °F 37% 30.01 in 10.0 mi NW 8.1 mph - N/A   Clear
5:15 PM 71.6 °F 45.0 °F 38% 30.01 in 10.0 mi WNW 5.8 mph - N/A   Clear
5:35 PM 71.8 °F 46.6 °F 41% 30.02 in 10.0 mi NW 5.8 mph - N/A   Clear
5:55 PM 71.8 °F 45.1 °F 38% 30.02 in 10.0 mi WNW 4.6 mph - N/A   Clear
6:15 PM 70.7 °F 45.3 °F 40% 30.02 in 10.0 mi WNW 3.5 mph - N/A   Clear
6:35 PM 69.6 °F 46.2 °F 43% 30.02 in 10.0 mi WNW 5.8 mph - N/A   Clear
6:55 PM 68.4 °F 47.5 °F 47% 30.02 in 10.0 mi WNW 3.5 mph - N/A   Clear
7:35 PM 66.2 °F 47.5 °F 51% 30.02 in 10.0 mi WNW 5.8 mph - N/A   Clear
7:55 PM 65.3 °F 46.6 °F 51% 30.03 in 10.0 mi WNW 4.6 mph - N/A   Clear
8:15 PM 63.9 °F 47.3 °F 55% 30.03 in 10.0 mi NW 4.6 mph - N/A   Clear
8:35 PM 63.5 °F 46.4 °F 54% 30.03 in 10.0 mi NW 5.8 mph - N/A   Clear
8:55 PM 63.3 °F 46.4 °F 54% 30.03 in 10.0 mi NNW 3.5 mph - N/A   Clear
9:15 PM 62.1 °F 46.6 °F 57% 30.04 in 10.0 mi NNW 4.6 mph - N/A   Clear
9:35 PM 60.4 °F 46.9 °F 61% 30.03 in 10.0 mi NW 5.8 mph - N/A   Clear
9:55 PM 62.6 °F 45.0 °F 52% 30.03 in 10.0 mi NW 3.5 mph - N/A   Clear
10:15 PM 60.8 °F 45.5 °F 57% 30.03 in 10.0 mi NW 3.5 mph - N/A   Clear
10:35 PM 60.1 °F 45.3 °F 58% 30.04 in 10.0 mi Calm Calm - N/A   Clear
10:55 PM 59.4 °F 45.5 °F 60% 30.04 in 10.0 mi Calm Calm - N/A   Clear
11:15 PM 59.4 °F 44.8 °F 58% 30.04 in 10.0 mi Calm Calm - N/A   Clear
11:35 PM 59.4 °F 44.2 °F 57% 30.04 in 10.0 mi North 4.6 mph - N/A   Clear
11:55 PM 54.7 °F 45.9 °F 72% 30.04 in 10.0 mi SSE 3.5 mph - N/A   Clear